Time;durP1;ratioP1;P1;durP2;ratioP2;P2;SDS_P1;SDS_P2;PMS_P1;PMS_P2;Temp;Humidity;BMP_temperature;BMP_pressure;BME280_temperature;BME280_humidity;BME280_pressure;Samples;Min_cycle;Max_cycle;Signal;HPM_P1;HPM_P2
2024/02/29 00:01:57;;;;;;;18.60;10.38;;;7.30;99.90;;;;;;5073198;28;20048;-76
2024/02/29 00:04:24;;;;;;;19.67;11.10;;;7.30;99.90;;;;;;5071176;28;20432;-76
2024/02/29 00:06:50;;;;;;;21.55;10.48;;;7.30;99.90;;;;;;5072938;28;20028;-78
2024/02/29 00:09:16;;;;;;;18.30;11.00;;;7.30;99.90;;;;;;5073108;28;20036;-76
2024/02/29 00:11:42;;;;;;;18.92;10.32;;;7.20;99.90;;;;;;5072098;28;20439;-77
2024/02/29 00:14:07;;;;;;;20.88;10.57;;;7.30;99.90;;;;;;5071471;28;20540;-78
2024/02/29 00:16:33;;;;;;;19.85;11.02;;;7.30;99.90;;;;;;5072662;28;20085;-75
2024/02/29 00:18:59;;;;;;;19.90;11.30;;;7.20;99.90;;;;;;5072028;28;20036;-76
2024/02/29 00:21:25;;;;;;;24.38;12.50;;;7.20;99.90;;;;;;5060031;28;20024;-75
2024/02/29 00:23:50;;;;;;;20.77;11.23;;;7.20;99.90;;;;;;5072996;28;20025;-77
2024/02/29 00:26:16;;;;;;;26.00;11.65;;;7.20;99.90;;;;;;5072315;28;20100;-78
2024/02/29 00:28:42;;;;;;;22.80;11.63;;;7.20;99.90;;;;;;5072301;28;20036;-77
2024/02/29 00:31:07;;;;;;;22.98;12.05;;;7.10;99.90;;;;;;5072135;28;20016;-78
2024/02/29 00:33:33;;;;;;;23.60;12.00;;;7.20;99.90;;;;;;5072192;28;20037;-77
2024/02/29 00:35:59;;;;;;;24.73;12.80;;;7.20;99.90;;;;;;5072201;28;20021;-77
2024/02/29 00:38:25;;;;;;;22.80;12.32;;;7.20;99.90;;;;;;5071359;28;20644;-77
2024/02/29 00:40:51;;;;;;;23.10;11.80;;;7.10;99.90;;;;;;5072155;28;20473;-78
2024/02/29 00:43:16;;;;;;;21.30;12.18;;;7.20;99.90;;;;;;5072868;28;20032;-77
2024/02/29 00:45:42;;;;;;;25.58;12.13;;;7.20;99.90;;;;;;5072094;28;20020;-77
2024/02/29 00:48:08;;;;;;;22.88;12.63;;;7.20;99.90;;;;;;5070404;28;20032;-77
2024/02/29 00:50:34;;;;;;;24.70;13.00;;;7.10;99.90;;;;;;5072495;28;20024;-78
2024/02/29 00:52:59;;;;;;;24.10;12.43;;;7.10;99.90;;;;;;5072379;28;20028;-78
2024/02/29 00:55:25;;;;;;;25.98;12.57;;;7.10;99.90;;;;;;5072007;28;20032;-78
2024/02/29 00:57:51;;;;;;;24.88;13.60;;;7.00;99.90;;;;;;5071980;28;20025;-78
2024/02/29 01:00:18;;;;;;;26.73;13.38;;;7.10;99.90;;;;;;5071340;28;20024;-78
2024/02/29 01:02:44;;;;;;;26.70;12.75;;;7.00;99.90;;;;;;5072229;28;20028;-77
2024/02/29 01:05:11;;;;;;;24.55;13.95;;;7.10;99.90;;;;;;5071671;28;20513;-77
2024/02/29 01:07:40;;;;;;;23.73;13.02;;;7.10;99.90;;;;;;5071666;28;20016;-77
2024/02/29 01:10:11;;;;;;;26.30;13.40;;;7.10;99.90;;;;;;5071181;28;20017;-75
2024/02/29 01:12:41;;;;;;;25.50;12.88;;;7.00;99.90;;;;;;5071099;28;20064;-77
2024/02/29 01:15:13;;;;;;;25.95;14.02;;;7.10;99.90;;;;;;5072056;28;20020;-77
2024/02/29 01:17:41;;;;;;;31.40;15.18;;;7.00;99.90;;;;;;5071365;28;20100;-78
2024/02/29 01:20:08;;;;;;;26.70;14.38;;;7.10;99.90;;;;;;5064902;28;20025;-77
2024/02/29 01:22:35;;;;;;;29.08;14.20;;;7.10;99.90;;;;;;5066429;28;20042;-77
2024/02/29 01:25:01;;;;;;;22.58;12.70;;;7.10;99.90;;;;;;5072124;28;20247;-78
2024/02/29 01:27:27;;;;;;;27.75;14.93;;;7.20;99.90;;;;;;5057518;28;20025;-78
2024/02/29 01:29:53;;;;;;;25.52;14.30;;;7.10;99.90;;;;;;5070920;28;20103;-77
2024/02/29 01:32:19;;;;;;;30.80;15.05;;;7.10;99.90;;;;;;5070664;28;20104;-78
2024/02/29 01:34:44;;;;;;;28.27;14.85;;;7.10;99.90;;;;;;5062333;28;20125;-78
2024/02/29 01:37:10;;;;;;;25.60;13.77;;;7.10;99.90;;;;;;5066232;28;20020;-77
2024/02/29 01:39:35;;;;;;;27.45;15.20;;;7.10;99.90;;;;;;5071950;28;20032;-76
2024/02/29 01:42:02;;;;;;;28.40;15.55;;;7.00;99.90;;;;;;5071201;28;20474;-76
2024/02/29 01:44:28;;;;;;;26.33;14.38;;;7.10;99.90;;;;;;5071862;28;20055;-78
2024/02/29 01:46:54;;;;;;;31.98;16.25;;;7.00;99.90;;;;;;5071182;28;20461;-77
2024/02/29 01:49:21;;;;;;;29.00;14.70;;;6.90;99.90;;;;;;5070971;28;20025;-78
2024/02/29 01:51:49;;;;;;;30.83;14.77;;;6.90;99.90;;;;;;5070702;28;20115;-77
2024/02/29 01:54:14;;;;;;;28.33;14.50;;;7.00;99.90;;;;;;5071612;28;20071;-77
2024/02/29 01:56:41;;;;;;;32.70;16.13;;;7.00;99.90;;;;;;5071561;28;20045;-78
2024/02/29 01:59:07;;;;;;;29.27;15.63;;;7.00;99.90;;;;;;5070528;28;20039;-77
2024/02/29 02:01:34;;;;;;;30.73;15.98;;;7.00;99.90;;;;;;5071220;28;20021;-78
2024/02/29 02:04:00;;;;;;;28.00;15.10;;;7.10;99.90;;;;;;5071678;28;20175;-77
2024/02/29 02:06:26;;;;;;;32.65;15.43;;;7.10;99.90;;;;;;5071314;28;20021;-77
2024/02/29 02:08:52;;;;;;;27.35;15.20;;;7.10;99.90;;;;;;5069818;28;20033;-77
2024/02/29 02:11:17;;;;;;;28.58;16.83;;;7.10;99.90;;;;;;5070271;28;20021;-74
2024/02/29 02:13:43;;;;;;;31.10;15.95;;;7.10;99.90;;;;;;5073715;28;20056;-77
2024/02/29 02:16:09;;;;;;;25.63;14.68;;;7.20;99.90;;;;;;5074721;28;20025;-77
2024/02/29 02:18:35;;;;;;;30.75;16.48;;;7.10;99.90;;;;;;5074937;28;20543;-77
2024/02/29 02:21:01;;;;;;;28.52;16.33;;;7.20;99.90;;;;;;5062467;28;20021;-77
2024/02/29 02:23:27;;;;;;;29.63;16.30;;;7.20;99.90;;;;;;5075374;28;20016;-77
2024/02/29 02:25:58;;;;;;;26.38;15.23;;;7.30;99.90;;;;;;5074261;28;20873;-77
2024/02/29 02:28:25;;;;;;;27.10;15.35;;;7.30;99.90;;;;;;5074443;28;20477;-77
2024/02/29 02:30:51;;;;;;;26.65;14.77;;;7.30;99.90;;;;;;5073773;28;20024;-77
2024/02/29 02:33:16;;;;;;;30.77;16.08;;;7.30;99.90;;;;;;5074919;28;20044;-77
2024/02/29 02:35:42;;;;;;;28.50;16.23;;;7.30;99.90;;;;;;5074313;28;20066;-77
2024/02/29 02:38:07;;;;;;;30.65;16.17;;;7.30;99.90;;;;;;5073598;28;20020;-77
2024/02/29 02:40:35;;;;;;;28.17;15.00;;;7.30;99.90;;;;;;5074246;28;20435;-78
2024/02/29 02:43:01;;;;;;;27.05;16.02;;;7.30;99.90;;;;;;5074447;28;20398;-77
2024/02/29 02:45:26;;;;;;;28.60;16.02;;;7.40;99.90;;;;;;5074538;28;20090;-76
2024/02/29 02:47:52;;;;;;;26.90;15.27;;;7.40;99.90;;;;;;5074063;28;20377;-77
2024/02/29 02:50:18;;;;;;;28.65;15.02;;;7.50;99.90;;;;;;5074567;28;20055;-77
2024/02/29 02:52:44;;;;;;;31.85;15.13;;;7.50;99.90;;;;;;5074791;28;20028;-77
2024/02/29 02:55:09;;;;;;;27.98;13.85;;;7.60;99.90;;;;;;5074139;28;20031;-77
2024/02/29 02:57:35;;;;;;;34.55;14.70;;;7.60;99.90;;;;;;5073298;28;20043;-77
2024/02/29 03:00:01;;;;;;;26.13;14.60;;;7.60;99.90;;;;;;5074425;28;20031;-77
2024/02/29 03:02:26;;;;;;;29.67;14.80;;;7.60;99.90;;;;;;5074171;28;20028;-77
2024/02/29 03:04:52;;;;;;;29.70;15.20;;;7.60;99.90;;;;;;5072531;28;20016;-77
2024/02/29 03:07:19;;;;;;;31.92;16.48;;;7.60;99.90;;;;;;5072797;28;20029;-75
2024/02/29 03:09:45;;;;;;;25.00;14.35;;;7.50;99.90;;;;;;5074178;28;20012;-77
2024/02/29 03:12:11;;;;;;;27.35;14.93;;;7.60;99.90;;;;;;5073204;28;20078;-77
2024/02/29 03:14:37;;;;;;;30.80;14.75;;;7.60;99.90;;;;;;5073656;28;20393;-77
2024/02/29 03:17:03;;;;;;;26.38;14.95;;;7.60;99.90;;;;;;5072974;28;20055;-77
2024/02/29 03:19:29;;;;;;;26.65;14.73;;;7.70;99.90;;;;;;5071464;28;20482;-76
2024/02/29 03:21:55;;;;;;;28.08;14.30;;;7.70;99.90;;;;;;5062244;28;20128;-76
2024/02/29 03:24:21;;;;;;;25.33;14.35;;;7.70;99.90;;;;;;5073495;28;20563;-77
2024/02/29 03:26:47;;;;;;;22.60;14.07;;;7.60;99.90;;;;;;5073289;28;20031;-77
2024/02/29 03:29:13;;;;;;;29.13;15.20;;;7.70;99.90;;;;;;5073991;28;20021;-77
2024/02/29 03:31:42;;;;;;;26.27;13.55;;;7.60;99.90;;;;;;5073253;28;20074;-76
2024/02/29 03:34:08;;;;;;;23.50;14.13;;;7.60;99.90;;;;;;5074042;28;20381;-77
2024/02/29 03:36:33;;;;;;;25.40;14.82;;;7.60;99.90;;;;;;5073885;28;20025;-77
2024/02/29 03:38:59;;;;;;;26.50;13.70;;;7.70;99.90;;;;;;5073943;28;20470;-77
2024/02/29 03:41:25;;;;;;;24.92;13.80;;;7.70;99.90;;;;;;5072256;28;20021;-77
2024/02/29 03:43:50;;;;;;;25.42;13.63;;;7.80;99.90;;;;;;5073182;28;20036;-76
2024/02/29 03:46:16;;;;;;;24.05;13.13;;;7.80;99.90;;;;;;5073851;28;20032;-76
2024/02/29 03:48:42;;;;;;;23.17;12.82;;;7.80;99.90;;;;;;5072517;28;20024;-77
2024/02/29 03:51:08;;;;;;;23.60;12.63;;;7.80;99.90;;;;;;5071734;28;20033;-77
2024/02/29 03:53:34;;;;;;;25.25;13.05;;;7.80;99.90;;;;;;5071936;28;20029;-76
2024/02/29 03:56:00;;;;;;;25.35;14.13;;;7.80;99.90;;;;;;5072471;28;20032;-77
2024/02/29 03:58:26;;;;;;;20.58;12.70;;;7.80;99.90;;;;;;5072611;28;20031;-77
2024/02/29 04:00:51;;;;;;;22.15;12.82;;;7.80;99.90;;;;;;5072660;28;20025;-76
2024/02/29 04:03:17;;;;;;;18.33;11.63;;;7.80;99.90;;;;;;5073326;28;20115;-76
2024/02/29 04:05:43;;;;;;;23.48;12.45;;;7.90;99.90;;;;;;5073270;28;20429;-77
2024/02/29 04:08:12;;;;;;;20.63;12.60;;;7.90;99.90;;;;;;5072999;28;20023;-76
2024/02/29 04:10:48;;;;;;;21.33;12.23;;;8.00;99.90;;;;;;5071943;28;20366;-77
2024/02/29 04:13:14;;;;;;;21.85;12.02;;;8.00;99.90;;;;;;5072663;28;20441;-76
2024/02/29 04:15:40;;;;;;;27.23;14.60;;;8.00;99.90;;;;;;5072792;28;20082;-77
2024/02/29 04:18:06;;;;;;;29.92;14.20;;;8.10;99.90;;;;;;5072035;28;20017;-76
2024/02/29 04:20:32;;;;;;;21.17;11.43;;;8.10;99.90;;;;;;5062214;28;20021;-76
2024/02/29 04:22:57;;;;;;;21.38;12.07;;;8.10;99.90;;;;;;5070776;28;20029;-75
2024/02/29 04:25:23;;;;;;;22.80;12.63;;;8.10;99.90;;;;;;5072632;28;20028;-77
2024/02/29 04:27:52;;;;;;;20.30;12.82;;;8.20;99.90;;;;;;5072190;28;20021;-77
2024/02/29 04:30:18;;;;;;;21.38;12.70;;;8.20;99.90;;;;;;5072152;28;20027;-77
2024/02/29 04:32:45;;;;;;;19.02;11.40;;;8.20;99.90;;;;;;5071626;28;20021;-77
2024/02/29 04:35:10;;;;;;;23.33;11.98;;;8.20;99.90;;;;;;5072216;28;20063;-77
2024/02/29 04:37:37;;;;;;;22.85;12.48;;;8.20;99.90;;;;;;5071771;28;20456;-77
2024/02/29 04:40:03;;;;;;;21.48;11.88;;;8.30;99.90;;;;;;5072213;28;20032;-77
2024/02/29 04:42:30;;;;;;;21.25;12.07;;;8.30;99.90;;;;;;5072195;28;20047;-76
2024/02/29 04:44:55;;;;;;;19.95;11.20;;;8.30;99.90;;;;;;5072387;28;20032;-76
2024/02/29 04:47:22;;;;;;;24.23;12.60;;;8.30;99.90;;;;;;5071453;28;20021;-76
2024/02/29 04:49:48;;;;;;;21.08;11.55;;;8.30;99.90;;;;;;5072378;28;20021;-76
2024/02/29 04:52:14;;;;;;;20.38;12.60;;;8.30;99.90;;;;;;5072084;28;20400;-77
2024/02/29 04:54:39;;;;;;;23.67;12.13;;;8.40;99.90;;;;;;5070000;28;20532;-77
2024/02/29 04:57:05;;;;;;;21.20;11.15;;;8.30;99.90;;;;;;5070343;28;20465;-77
2024/02/29 04:59:31;;;;;;;21.00;12.63;;;8.30;99.90;;;;;;5072600;28;20020;-76
2024/02/29 05:01:58;;;;;;;18.63;10.45;;;8.40;99.90;;;;;;5071162;28;20019;-77
2024/02/29 05:04:24;;;;;;;16.75;9.93;;;8.40;99.90;;;;;;5072356;28;20417;-77
2024/02/29 05:06:49;;;;;;;21.75;12.57;;;8.40;99.90;;;;;;5071642;28;20017;-76
2024/02/29 05:09:15;;;;;;;21.95;11.63;;;8.40;99.90;;;;;;5071923;28;20024;-77
2024/02/29 05:11:41;;;;;;;21.77;12.27;;;8.40;99.90;;;;;;5070728;28;20036;-76
2024/02/29 05:14:07;;;;;;;24.33;11.82;;;8.40;99.90;;;;;;5072312;28;20041;-76
2024/02/29 05:16:33;;;;;;;20.85;11.02;;;8.40;99.90;;;;;;5071865;28;20103;-76
2024/02/29 05:18:59;;;;;;;20.70;11.93;;;8.30;99.90;;;;;;5071741;28;20067;-77
2024/02/29 05:21:25;;;;;;;25.23;12.10;;;8.30;99.90;;;;;;5057808;28;20465;-77
2024/02/29 05:23:51;;;;;;;21.65;12.93;;;8.30;99.90;;;;;;5070775;28;20063;-77
2024/02/29 05:26:18;;;;;;;27.00;12.82;;;8.30;99.90;;;;;;5071306;28;20044;-76
2024/02/29 05:28:44;;;;;;;20.85;12.48;;;8.40;99.90;;;;;;5070773;28;20041;-77
2024/02/29 05:31:10;;;;;;;22.77;12.57;;;8.50;99.90;;;;;;5071659;28;20070;-76
2024/02/29 05:33:37;;;;;;;19.33;12.07;;;8.50;99.90;;;;;;5072110;28;20107;-77
2024/02/29 05:36:03;;;;;;;20.95;12.55;;;8.50;99.90;;;;;;5071805;28;20021;-77
2024/02/29 05:38:29;;;;;;;22.65;12.50;;;8.40;99.90;;;;;;5070709;28;20025;-77
2024/02/29 05:40:57;;;;;;;25.30;13.07;;;8.50;99.90;;;;;;5071329;28;20031;-77
2024/02/29 05:43:25;;;;;;;20.77;11.80;;;8.50;99.90;;;;;;5072203;28;20024;-77
2024/02/29 05:45:51;;;;;;;22.30;11.98;;;8.60;99.90;;;;;;5071954;28;20020;-77
2024/02/29 05:48:17;;;;;;;23.63;12.88;;;8.50;99.90;;;;;;5076077;28;20044;-77
2024/02/29 05:50:42;;;;;;;23.65;13.23;;;8.50;99.90;;;;;;5074578;28;20381;-77
2024/02/29 05:53:08;;;;;;;26.48;13.98;;;8.50;99.90;;;;;;5074900;28;20077;-76
2024/02/29 05:55:34;;;;;;;26.17;14.18;;;8.50;99.90;;;;;;5062326;28;20503;-77
2024/02/29 05:57:59;;;;;;;23.85;13.35;;;8.50;99.90;;;;;;5075287;28;20035;-77
2024/02/29 06:00:25;;;;;;;24.90;13.45;;;8.50;99.90;;;;;;5074544;28;20526;-78
2024/02/29 06:02:51;;;;;;;30.48;13.13;;;8.50;99.90;;;;;;5075639;28;20021;-76
2024/02/29 06:05:18;;;;;;;24.90;13.48;;;8.50;99.90;;;;;;5074971;28;20461;-77
2024/02/29 06:07:44;;;;;;;27.95;12.70;;;8.50;99.90;;;;;;5075145;28;20526;-76
2024/02/29 06:10:10;;;;;;;23.48;12.77;;;8.50;99.90;;;;;;5073622;28;20048;-76
2024/02/29 06:12:36;;;;;;;25.17;11.63;;;8.50;99.90;;;;;;5063454;28;20508;-77
2024/02/29 06:15:03;;;;;;;24.30;14.57;;;8.60;99.90;;;;;;5074323;28;20034;-76
2024/02/29 06:17:28;;;;;;;27.95;14.73;;;8.60;99.90;;;;;;5074822;28;20066;-77
2024/02/29 06:19:54;;;;;;;25.38;13.57;;;8.60;99.90;;;;;;5069777;28;20025;-75
2024/02/29 06:22:22;;;;;;;28.05;14.23;;;8.60;99.90;;;;;;5067312;28;20032;-74
2024/02/29 06:24:49;;;;;;;27.05;13.68;;;8.60;99.90;;;;;;5074786;28;20024;-76
2024/02/29 06:27:16;;;;;;;23.75;12.73;;;8.50;99.90;;;;;;5073263;28;20029;-76
2024/02/29 06:29:42;;;;;;;23.85;12.27;;;8.60;99.90;;;;;;5074411;28;20025;-76
2024/02/29 06:32:08;;;;;;;26.73;14.13;;;8.70;99.90;;;;;;5073956;28;20028;-75
2024/02/29 06:34:33;;;;;;;25.65;13.50;;;8.70;99.90;;;;;;5072594;28;20033;-76
2024/02/29 06:36:59;;;;;;;25.85;13.70;;;8.70;99.90;;;;;;5073456;28;20016;-76
2024/02/29 06:39:25;;;;;;;27.02;12.95;;;8.70;99.90;;;;;;5060653;28;20496;-76
2024/02/29 06:41:50;;;;;;;26.08;13.48;;;8.70;99.90;;;;;;5062605;28;20390;-76
2024/02/29 06:44:16;;;;;;;25.23;12.90;;;8.80;99.90;;;;;;5060529;28;20029;-76
2024/02/29 06:46:42;;;;;;;23.52;12.75;;;8.80;99.90;;;;;;5074705;28;20086;-76
2024/02/29 06:49:08;;;;;;;26.73;13.25;;;8.80;99.90;;;;;;5074337;28;20031;-76
2024/02/29 06:51:35;;;;;;;28.25;15.02;;;8.80;99.90;;;;;;5063483;28;20037;-75
2024/02/29 06:54:01;;;;;;;23.75;12.73;;;8.80;99.90;;;;;;5069211;28;20035;-76
2024/02/29 06:56:26;;;;;;;23.98;13.80;;;8.90;99.90;;;;;;5065261;28;20108;-77
2024/02/29 06:58:52;;;;;;;25.85;14.13;;;9.00;99.90;;;;;;5072442;28;20525;-77
2024/02/29 07:01:21;;;;;;;26.83;13.18;;;8.90;99.90;;;;;;5061192;28;20095;-77
2024/02/29 07:03:47;;;;;;;26.48;13.38;;;8.90;99.90;;;;;;5073505;28;20086;-78
2024/02/29 07:06:13;;;;;;;26.35;13.57;;;8.80;99.90;;;;;;5071463;28;20115;-76
2024/02/29 07:08:39;;;;;;;24.60;13.07;;;8.80;99.90;;;;;;5067944;28;20068;-77
2024/02/29 07:11:05;;;;;;;26.35;13.25;;;8.90;99.90;;;;;;5068494;28;20027;-79
2024/02/29 07:13:31;;;;;;;23.35;13.43;;;8.90;99.90;;;;;;5073599;28;20028;-78
2024/02/29 07:15:57;;;;;;;23.45;13.25;;;8.90;99.90;;;;;;5074262;28;20505;-79
2024/02/29 07:18:23;;;;;;;26.08;13.60;;;8.90;99.90;;;;;;5070698;28;20020;-73
2024/02/29 07:20:50;;;;;;;26.40;13.40;;;8.90;99.90;;;;;;5056899;28;20489;-76
2024/02/29 07:23:16;;;;;;;20.77;12.00;;;9.00;99.90;;;;;;5063007;28;20099;-78
2024/02/29 07:25:42;;;;;;;22.42;13.15;;;9.00;99.90;;;;;;5074196;28;20092;-78
2024/02/29 07:28:08;;;;;;;21.42;11.95;;;9.00;99.90;;;;;;5069048;28;20111;-79
2024/02/29 07:30:33;;;;;;;23.75;12.70;;;9.10;99.90;;;;;;5055734;28;20119;-74
2024/02/29 07:33:04;;;;;;;21.55;12.27;;;9.10;99.90;;;;;;5066932;28;20466;-77
2024/02/29 07:35:31;;;;;;;25.00;12.38;;;9.00;99.90;;;;;;5064454;28;20033;-79
2024/02/29 07:37:59;;;;;;;24.65;12.18;;;9.00;99.90;;;;;;5073772;28;20016;-77
2024/02/29 07:40:25;;;;;;;22.17;11.57;;;9.10;99.90;;;;;;5060069;28;20111;-77
2024/02/29 07:42:51;;;;;;;21.80;12.05;;;9.10;99.90;;;;;;5055803;28;20116;-78
2024/02/29 07:45:17;;;;;;;22.58;11.30;;;9.10;99.90;;;;;;5057783;28;20036;-79
2024/02/29 07:47:43;;;;;;;20.52;11.68;;;9.20;99.90;;;;;;5063694;28;20485;-76
2024/02/29 07:50:09;;;;;;;21.60;11.82;;;9.20;99.90;;;;;;5068857;28;20032;-73
2024/02/29 07:52:37;;;;;;;21.48;11.77;;;9.20;99.90;;;;;;5066158;28;20025;-72
2024/02/29 07:55:05;;;;;;;21.98;10.88;;;9.20;99.90;;;;;;5056370;28;20029;-75
2024/02/29 07:57:31;;;;;;;23.17;10.20;;;9.20;99.90;;;;;;5054310;28;20017;-77
2024/02/29 07:59:57;;;;;;;19.48;10.60;;;9.20;99.90;;;;;;5053679;28;20029;-78
2024/02/29 08:02:23;;;;;;;20.40;11.55;;;9.20;99.90;;;;;;5057043;28;20100;-79
2024/02/29 08:04:48;;;;;;;20.30;10.32;;;9.20;99.90;;;;;;5057528;28;20037;-79
2024/02/29 08:07:14;;;;;;;18.55;10.80;;;9.30;99.90;;;;;;5060983;28;20036;-72
2024/02/29 08:09:40;;;;;;;19.80;11.20;;;9.30;99.90;;;;;;5050049;28;20476;-79
2024/02/29 08:12:06;;;;;;;20.27;11.35;;;9.20;99.90;;;;;;5061246;28;20078;-79
2024/02/29 08:14:32;;;;;;;21.02;10.98;;;9.30;99.90;;;;;;5050309;28;20053;-75
2024/02/29 08:16:58;;;;;;;19.00;10.57;;;9.30;99.90;;;;;;5046565;28;20017;-77
2024/02/29 08:19:24;;;;;;;18.80;11.88;;;9.40;99.90;;;;;;5048193;28;20145;-77
2024/02/29 08:21:49;;;;;;;18.15;10.35;;;9.30;99.90;;;;;;5058377;28;20055;-76
2024/02/29 08:24:15;;;;;;;20.40;10.27;;;9.50;99.90;;;;;;5062699;28;20053;-75
2024/02/29 08:26:41;;;;;;;23.02;10.63;;;9.50;99.90;;;;;;5065573;28;20445;-77
2024/02/29 08:29:07;;;;;;;16.60;9.95;;;9.60;99.90;;;;;;5046968;28;20037;-75
2024/02/29 08:31:33;;;;;;;17.75;9.95;;;9.70;99.90;;;;;;5051719;28;20082;-75
2024/02/29 08:33:59;;;;;;;15.93;8.95;;;9.70;99.90;;;;;;5054954;28;20105;-74
2024/02/29 08:36:25;;;;;;;23.35;10.93;;;9.80;99.90;;;;;;5048898;28;20604;-73
2024/02/29 08:38:51;;;;;;;19.15;10.32;;;9.80;99.90;;;;;;5064229;28;20036;-74
2024/02/29 08:41:17;;;;;;;19.88;9.95;;;9.80;99.90;;;;;;5066761;28;20373;-74
2024/02/29 08:43:43;;;;;;;16.15;10.05;;;9.80;99.90;;;;;;5065468;28;20035;-74
2024/02/29 08:46:09;;;;;;;14.57;9.32;;;9.80;99.90;;;;;;5053320;28;20021;-74
2024/02/29 08:48:38;;;;;;;14.35;8.88;;;9.80;99.90;;;;;;5055777;28;20027;-74
2024/02/29 08:51:04;;;;;;;19.58;9.70;;;9.90;99.90;;;;;;5053185;28;20029;-75
2024/02/29 08:53:30;;;;;;;16.10;9.10;;;9.90;99.90;;;;;;5055768;28;20013;-75
2024/02/29 08:55:56;;;;;;;17.50;8.48;;;10.00;99.90;;;;;;5054637;28;20040;-74
2024/02/29 08:58:22;;;;;;;16.27;8.93;;;10.10;99.90;;;;;;5057207;28;20066;-73
2024/02/29 09:00:47;;;;;;;13.50;8.57;;;10.20;99.90;;;;;;5069563;28;20028;-73
2024/02/29 09:03:13;;;;;;;16.35;8.80;;;10.20;99.90;;;;;;5067330;28;20021;-73
2024/02/29 09:05:40;;;;;;;16.83;8.88;;;10.20;99.90;;;;;;5054833;28;20033;-73
2024/02/29 09:08:07;;;;;;;14.90;8.68;;;10.20;99.90;;;;;;5066094;28;20037;-73
2024/02/29 09:10:35;;;;;;;14.13;8.35;;;10.30;99.90;;;;;;5062157;28;20029;-74
2024/02/29 09:13:00;;;;;;;14.40;8.63;;;10.30;99.90;;;;;;5070193;28;20032;-74
2024/02/29 09:15:26;;;;;;;12.07;7.75;;;10.30;99.90;;;;;;5056597;28;20394;-76
2024/02/29 09:17:52;;;;;;;14.63;8.30;;;10.40;99.90;;;;;;5067798;28;20535;-74
2024/02/29 09:20:18;;;;;;;17.67;7.18;;;10.40;99.90;;;;;;5052296;28;20028;-75
2024/02/29 09:22:44;;;;;;;14.95;8.07;;;10.40;99.90;;;;;;5066253;28;20060;-75
2024/02/29 09:25:10;;;;;;;13.15;8.52;;;10.50;99.90;;;;;;5065564;28;20469;-74
2024/02/29 09:27:35;;;;;;;14.35;7.55;;;10.50;99.90;;;;;;5065476;28;20061;-73
2024/02/29 09:30:01;;;;;;;12.25;7.40;;;10.50;99.90;;;;;;5053319;28;20016;-76
2024/02/29 09:32:27;;;;;;;16.17;7.57;;;10.50;99.90;;;;;;5065581;28;20478;-74
2024/02/29 09:34:53;;;;;;;15.35;7.13;;;10.60;99.90;;;;;;5069753;28;20033;-76
2024/02/29 09:37:18;;;;;;;13.68;7.25;;;10.60;99.90;;;;;;5069788;28;20553;-74
2024/02/29 09:39:44;;;;;;;13.60;7.50;;;10.60;99.90;;;;;;5071868;28;20024;-76
2024/02/29 09:42:10;;;;;;;12.10;7.18;;;10.70;99.90;;;;;;5071022;28;20043;-75
2024/02/29 09:44:36;;;;;;;10.02;6.93;;;10.70;99.90;;;;;;5070194;28;20074;-76
2024/02/29 09:47:04;;;;;;;12.23;7.70;;;10.80;99.90;;;;;;5066475;28;20036;-72
2024/02/29 09:49:30;;;;;;;13.68;6.97;;;10.80;99.90;;;;;;5063600;28;20474;-74
2024/02/29 09:51:58;;;;;;;15.48;8.02;;;10.90;99.90;;;;;;5050250;28;20027;-75
2024/02/29 09:54:27;;;;;;;13.27;7.97;;;10.80;99.90;;;;;;5045621;28;20094;-76
2024/02/29 09:56:53;;;;;;;11.05;7.30;;;10.70;99.90;;;;;;5062612;28;20017;-75
2024/02/29 09:59:21;;;;;;;12.55;7.75;;;10.80;99.90;;;;;;5068324;28;20086;-75
2024/02/29 10:01:55;;;;;;;11.88;7.88;;;10.90;99.90;;;;;;5067060;28;20362;-75
2024/02/29 10:04:20;;;;;;;16.05;7.72;;;10.80;99.90;;;;;;5060357;28;20461;-73
2024/02/29 10:06:46;;;;;;;14.73;8.10;;;10.80;99.90;;;;;;5069151;28;20021;-73
2024/02/29 10:09:12;;;;;;;13.35;7.35;;;10.80;99.90;;;;;;5066881;28;20481;-75
2024/02/29 10:11:41;;;;;;;13.75;8.43;;;10.80;99.90;;;;;;5071079;28;20033;-75
2024/02/29 10:14:18;;;;;;;10.75;7.25;;;10.90;99.90;;;;;;5070402;28;20047;-75
2024/02/29 10:16:51;;;;;;;12.02;7.25;;;10.90;99.90;;;;;;5060414;28;20096;-74
2024/02/29 10:19:21;;;;;;;12.73;7.40;;;11.00;99.90;;;;;;5065598;28;20036;-75
2024/02/29 10:21:48;;;;;;;17.88;8.43;;;11.10;99.90;;;;;;5060744;28;20017;-73
2024/02/29 10:24:14;;;;;;;14.68;7.43;;;11.00;99.90;;;;;;5054980;28;20025;-74
2024/02/29 10:26:40;;;;;;;11.80;7.45;;;11.00;99.90;;;;;;5051402;28;20017;-72
2024/02/29 10:29:10;;;;;;;12.88;6.85;;;10.90;99.90;;;;;;5055817;28;20032;-74
2024/02/29 10:31:36;;;;;;;15.55;7.55;;;10.90;99.90;;;;;;5070733;28;20379;-76
2024/02/29 10:34:02;;;;;;;9.82;6.97;;;11.00;99.90;;;;;;5071530;28;20126;-74
2024/02/29 10:36:30;;;;;;;13.52;7.07;;;11.00;99.90;;;;;;5064717;28;20423;-75
2024/02/29 10:38:57;;;;;;;12.60;7.78;;;11.10;99.90;;;;;;5073558;28;20050;-76
2024/02/29 10:41:28;;;;;;;10.52;7.60;;;11.20;99.90;;;;;;5073637;28;20023;-75
2024/02/29 10:43:57;;;;;;;15.75;7.93;;;11.20;99.90;;;;;;5073745;28;20036;-75
2024/02/29 10:46:25;;;;;;;11.30;7.15;;;11.20;99.90;;;;;;5062384;28;20063;-74
2024/02/29 10:49:01;;;;;;;14.70;8.45;;;11.30;99.90;;;;;;5060632;28;20440;-73
2024/02/29 10:51:42;;;;;;;11.27;7.20;;;11.40;99.90;;;;;;5056035;28;20033;-73
2024/02/29 10:54:19;;;;;;;12.68;7.03;;;11.30;99.90;;;;;;5064901;28;20029;-72
2024/02/29 10:56:48;;;;;;;12.82;7.68;;;11.40;99.90;;;;;;5064122;28;20043;-83
2024/02/29 10:59:18;;;;;;;12.82;7.47;;;11.40;99.90;;;;;;5056021;28;20562;-78
2024/02/29 11:01:45;;;;;;;12.60;7.13;;;11.50;99.90;;;;;;5069048;28;20039;-78
2024/02/29 11:04:11;;;;;;;12.90;7.70;;;11.40;99.90;;;;;;5064930;28;20024;-81
2024/02/29 11:06:44;;;;;;;14.10;7.72;;;11.40;99.90;;;;;;5070793;28;20381;-83
2024/02/29 11:09:13;;;;;;;12.85;7.80;;;11.40;99.90;;;;;;5072623;28;20016;-80
2024/02/29 11:11:38;;;;;;;13.05;7.65;;;11.40;99.90;;;;;;5070773;28;20059;-78
2024/02/29 11:14:04;;;;;;;11.90;7.00;;;11.40;99.90;;;;;;5074225;28;20119;-78
2024/02/29 11:16:35;;;;;;;12.98;6.80;;;11.50;99.90;;;;;;5073866;28;20017;-78
2024/02/29 11:19:03;;;;;;;12.75;7.03;;;11.50;99.90;;;;;;5074409;28;20031;-78
2024/02/29 11:21:29;;;;;;;11.75;6.88;;;11.50;99.90;;;;;;5060536;28;20090;-75
2024/02/29 11:24:04;;;;;;;11.77;6.80;;;11.40;99.90;;;;;;5070718;28;20028;-76
2024/02/29 11:26:34;;;;;;;13.40;6.38;;;11.40;99.90;;;;;;5066264;28;20477;-76
2024/02/29 11:29:14;;;;;;;18.60;6.57;;;11.40;99.90;;;;;;5071461;28;20021;-74
2024/02/29 11:31:46;;;;;;;12.10;6.07;;;11.40;99.90;;;;;;5072172;28;20385;-74
2024/02/29 11:34:12;;;;;;;10.35;6.53;;;11.40;99.90;;;;;;5042162;28;20033;-74
2024/02/29 11:36:38;;;;;;;9.85;5.72;;;11.40;99.90;;;;;;5067765;28;20496;-74
2024/02/29 11:39:09;;;;;;;8.35;5.75;;;11.50;99.90;;;;;;5073925;28;20033;-74
2024/02/29 11:41:36;;;;;;;9.20;5.63;;;11.40;99.90;;;;;;5073151;28;20024;-73
2024/02/29 11:44:01;;;;;;;9.73;6.03;;;11.50;99.90;;;;;;5062976;28;20070;-74
2024/02/29 11:46:27;;;;;;;8.50;5.68;;;11.40;99.90;;;;;;5073355;28;20094;-75
2024/02/29 11:48:53;;;;;;;8.27;6.32;;;11.50;99.90;;;;;;5073141;28;20037;-75
2024/02/29 11:51:20;;;;;;;10.50;6.85;;;11.40;99.90;;;;;;5058551;28;20155;-75
2024/02/29 11:53:45;;;;;;;10.68;6.50;;;11.50;99.90;;;;;;5050783;28;20237;-75
2024/02/29 11:56:11;;;;;;;13.27;6.25;;;11.40;99.90;;;;;;5056055;28;20470;-75
2024/02/29 11:58:39;;;;;;;9.80;6.57;;;11.40;99.90;;;;;;5072150;28;20074;-71
2024/02/29 12:01:05;;;;;;;9.55;6.28;;;11.40;99.90;;;;;;5072638;28;20116;-75
2024/02/29 12:03:31;;;;;;;8.50;5.72;;;11.40;99.90;;;;;;5073445;28;20052;-75
2024/02/29 12:05:58;;;;;;;10.95;6.53;;;11.40;99.90;;;;;;5067036;28;20378;-77
2024/02/29 12:08:28;;;;;;;11.95;6.88;;;11.50;99.90;;;;;;5072524;28;20505;-77
2024/02/29 12:10:58;;;;;;;9.93;6.68;;;11.40;99.90;;;;;;5072685;28;20166;-77
2024/02/29 12:13:29;;;;;;;9.02;6.63;;;11.40;99.90;;;;;;5072619;28;20047;-77
2024/02/29 12:15:55;;;;;;;9.35;5.45;;;11.40;99.90;;;;;;5072503;28;20123;-76
2024/02/29 12:18:22;;;;;;;6.78;5.25;;;11.50;99.90;;;;;;5070392;28;20527;-76
2024/02/29 12:20:48;;;;;;;10.05;6.10;;;11.50;99.90;;;;;;5062763;28;20074;-75
2024/02/29 12:23:18;;;;;;;7.30;5.85;;;11.50;99.90;;;;;;5072565;28;20112;-76
2024/02/29 12:25:44;;;;;;;10.13;6.28;;;11.60;99.90;;;;;;5072233;28;20048;-75
2024/02/29 12:28:11;;;;;;;10.63;7.00;;;11.60;99.90;;;;;;5067049;28;20021;-78
2024/02/29 12:30:38;;;;;;;9.80;5.68;;;11.50;99.90;;;;;;5072688;28;20020;-79
2024/02/29 12:33:04;;;;;;;10.57;6.13;;;11.50;99.90;;;;;;5071096;28;20020;-79
2024/02/29 12:35:31;;;;;;;9.82;5.85;;;11.60;99.90;;;;;;5069950;28;20028;-79